sensor_id;sensor_type;location;lat;lon;timestamp;pressure;altitude;pressure_sealevel;temperature;humidity
78857;BME280;68207;50.078;19.936;2023-03-19T00:01:07;99162.05;;;5.93;53.44
78857;BME280;68207;50.078;19.936;2023-03-19T00:03:33;99167.17;;;5.88;53.50
78857;BME280;68207;50.078;19.936;2023-03-19T00:06:00;99166.98;;;5.82;53.66
78857;BME280;68207;50.078;19.936;2023-03-19T00:08:25;99169.98;;;5.76;54.40
78857;BME280;68207;50.078;19.936;2023-03-19T00:10:51;99166.78;;;5.71;54.12
78857;BME280;68207;50.078;19.936;2023-03-19T00:13:17;99168.48;;;5.65;54.52
78857;BME280;68207;50.078;19.936;2023-03-19T00:15:42;99171.43;;;5.60;54.38
78857;BME280;68207;50.078;19.936;2023-03-19T00:18:08;99170.29;;;5.55;54.63
78857;BME280;68207;50.078;19.936;2023-03-19T00:20:34;99171.23;;;5.50;54.60
78857;BME280;68207;50.078;19.936;2023-03-19T00:22:59;99167.92;;;5.46;54.71
78857;BME280;68207;50.078;19.936;2023-03-19T00:25:25;99171.48;;;5.42;55.15
78857;BME280;68207;50.078;19.936;2023-03-19T00:27:50;99172.23;;;5.37;54.93
78857;BME280;68207;50.078;19.936;2023-03-19T00:30:17;99172.71;;;5.32;55.43
78857;BME280;68207;50.078;19.936;2023-03-19T00:32:42;99176.33;;;5.26;55.35
78857;BME280;68207;50.078;19.936;2023-03-19T00:35:08;99174.57;;;5.22;55.47
78857;BME280;68207;50.078;19.936;2023-03-19T00:37:34;99176.13;;;5.17;55.43
78857;BME280;68207;50.078;19.936;2023-03-19T00:39:59;99177.60;;;5.12;55.49
78857;BME280;68207;50.078;19.936;2023-03-19T00:42:25;99178.61;;;5.06;55.69
78857;BME280;68207;50.078;19.936;2023-03-19T00:44:51;99178.55;;;5.01;55.61
78857;BME280;68207;50.078;19.936;2023-03-19T00:47:16;99176.24;;;4.95;55.66
78857;BME280;68207;50.078;19.936;2023-03-19T00:49:42;99174.02;;;4.91;55.79
78857;BME280;68207;50.078;19.936;2023-03-19T00:52:07;99174.14;;;4.85;55.84
78857;BME280;68207;50.078;19.936;2023-03-19T00:54:33;99171.58;;;4.78;56.03
78857;BME280;68207;50.078;19.936;2023-03-19T00:56:59;99170.50;;;4.72;56.09
78857;BME280;68207;50.078;19.936;2023-03-19T00:59:25;99168.46;;;4.68;56.32
78857;BME280;68207;50.078;19.936;2023-03-19T01:01:50;99166.86;;;4.62;56.54
78857;BME280;68207;50.078;19.936;2023-03-19T01:04:17;99166.38;;;4.57;56.73
78857;BME280;68207;50.078;19.936;2023-03-19T01:06:43;99164.83;;;4.53;57.00
78857;BME280;68207;50.078;19.936;2023-03-19T01:09:09;99155.77;;;4.48;57.00
78857;BME280;68207;50.078;19.936;2023-03-19T01:11:37;99151.96;;;4.44;57.01
78857;BME280;68207;50.078;19.936;2023-03-19T01:14:03;99152.60;;;4.40;57.20
78857;BME280;68207;50.078;19.936;2023-03-19T01:16:28;99155.14;;;4.37;57.30
78857;BME280;68207;50.078;19.936;2023-03-19T01:18:53;99156.05;;;4.32;57.41
78857;BME280;68207;50.078;19.936;2023-03-19T01:21:19;99163.59;;;4.28;57.65
78857;BME280;68207;50.078;19.936;2023-03-19T01:23:46;99159.32;;;4.23;57.66
78857;BME280;68207;50.078;19.936;2023-03-19T01:26:11;99159.63;;;4.19;57.88
78857;BME280;68207;50.078;19.936;2023-03-19T01:28:37;99159.59;;;4.15;57.89
78857;BME280;68207;50.078;19.936;2023-03-19T01:31:07;99155.00;;;4.10;58.14
78857;BME280;68207;50.078;19.936;2023-03-19T01:33:32;99156.77;;;4.05;58.08
78857;BME280;68207;50.078;19.936;2023-03-19T01:35:58;99159.54;;;4.01;58.13
78857;BME280;68207;50.078;19.936;2023-03-19T01:38:27;99158.55;;;3.98;58.27
78857;BME280;68207;50.078;19.936;2023-03-19T01:40:53;99165.55;;;3.96;58.38
78857;BME280;68207;50.078;19.936;2023-03-19T01:43:21;99161.46;;;3.93;58.36
78857;BME280;68207;50.078;19.936;2023-03-19T01:45:50;99157.04;;;3.89;58.35
78857;BME280;68207;50.078;19.936;2023-03-19T01:50:48;99158.35;;;3.82;58.71
78857;BME280;68207;50.078;19.936;2023-03-19T01:53:20;99155.09;;;3.74;59.20
78857;BME280;68207;50.078;19.936;2023-03-19T01:55:47;99157.27;;;3.69;59.06
78857;BME280;68207;50.078;19.936;2023-03-19T01:58:13;99154.67;;;3.65;59.19
78857;BME280;68207;50.078;19.936;2023-03-19T02:00:38;99156.70;;;3.61;59.17
78857;BME280;68207;50.078;19.936;2023-03-19T02:03:05;99160.84;;;3.57;59.05
78857;BME280;68207;50.078;19.936;2023-03-19T02:05:31;99158.97;;;3.52;59.16
78857;BME280;68207;50.078;19.936;2023-03-19T02:08:00;99159.73;;;3.47;59.16
78857;BME280;68207;50.078;19.936;2023-03-19T02:10:28;99161.75;;;3.42;59.34
78857;BME280;68207;50.078;19.936;2023-03-19T02:12:54;99161.69;;;3.38;59.36
78857;BME280;68207;50.078;19.936;2023-03-19T02:15:19;99157.98;;;3.34;59.35
78857;BME280;68207;50.078;19.936;2023-03-19T02:17:45;99156.17;;;3.33;59.48
78857;BME280;68207;50.078;19.936;2023-03-19T02:20:17;99152.47;;;3.31;59.53
78857;BME280;68207;50.078;19.936;2023-03-19T02:23:03;99153.64;;;3.28;59.58
78857;BME280;68207;50.078;19.936;2023-03-19T02:25:51;99154.42;;;3.25;59.60
78857;BME280;68207;50.078;19.936;2023-03-19T02:28:19;99153.81;;;3.19;59.83
78857;BME280;68207;50.078;19.936;2023-03-19T02:30:46;99150.15;;;3.15;59.77
78857;BME280;68207;50.078;19.936;2023-03-19T02:33:15;99156.29;;;3.12;59.92
78857;BME280;68207;50.078;19.936;2023-03-19T02:35:44;99166.17;;;3.06;60.06
78857;BME280;68207;50.078;19.936;2023-03-19T02:38:11;99168.43;;;2.99;60.75
78857;BME280;68207;50.078;19.936;2023-03-19T02:40:43;99171.13;;;2.94;60.58
78857;BME280;68207;50.078;19.936;2023-03-19T02:43:09;99168.73;;;2.91;60.75
78857;BME280;68207;50.078;19.936;2023-03-19T02:45:34;99170.69;;;2.88;61.11
78857;BME280;68207;50.078;19.936;2023-03-19T02:48:00;99169.64;;;2.86;60.99
78857;BME280;68207;50.078;19.936;2023-03-19T02:50:25;99173.00;;;2.88;61.20
78857;BME280;68207;50.078;19.936;2023-03-19T02:52:51;99174.95;;;2.87;61.07
78857;BME280;68207;50.078;19.936;2023-03-19T02:55:17;99176.36;;;2.87;61.09
78857;BME280;68207;50.078;19.936;2023-03-19T02:57:43;99179.98;;;2.84;61.17
78857;BME280;68207;50.078;19.936;2023-03-19T03:00:09;99178.96;;;2.83;61.11
78857;BME280;68207;50.078;19.936;2023-03-19T03:02:36;99178.23;;;2.86;61.10
78857;BME280;68207;50.078;19.936;2023-03-19T03:05:03;99182.23;;;2.88;61.12
78857;BME280;68207;50.078;19.936;2023-03-19T03:07:28;99178.05;;;2.88;61.23
78857;BME280;68207;50.078;19.936;2023-03-19T03:09:54;99180.27;;;2.91;61.22
78857;BME280;68207;50.078;19.936;2023-03-19T03:12:19;99183.13;;;2.90;61.08
78857;BME280;68207;50.078;19.936;2023-03-19T03:14:44;99188.27;;;2.87;61.33
78857;BME280;68207;50.078;19.936;2023-03-19T03:17:10;99189.51;;;2.84;61.55
78857;BME280;68207;50.078;19.936;2023-03-19T03:19:35;99181.98;;;2.83;61.30
78857;BME280;68207;50.078;19.936;2023-03-19T03:22:01;99180.16;;;2.81;61.27
78857;BME280;68207;50.078;19.936;2023-03-19T03:24:26;99183.03;;;2.78;61.10
78857;BME280;68207;50.078;19.936;2023-03-19T03:26:52;99187.95;;;2.73;61.10
78857;BME280;68207;50.078;19.936;2023-03-19T03:29:17;99186.51;;;2.69;61.23
78857;BME280;68207;50.078;19.936;2023-03-19T03:31:42;99191.48;;;2.66;61.02
78857;BME280;68207;50.078;19.936;2023-03-19T03:34:08;99191.23;;;2.62;61.14
78857;BME280;68207;50.078;19.936;2023-03-19T03:36:34;99187.47;;;2.59;61.11
78857;BME280;68207;50.078;19.936;2023-03-19T03:38:59;99186.90;;;2.55;61.28
78857;BME280;68207;50.078;19.936;2023-03-19T03:41:24;99189.00;;;2.53;61.24
78857;BME280;68207;50.078;19.936;2023-03-19T03:43:50;99188.15;;;2.50;61.29
78857;BME280;68207;50.078;19.936;2023-03-19T03:46:15;99192.62;;;2.46;61.52
78857;BME280;68207;50.078;19.936;2023-03-19T03:48:41;99192.07;;;2.42;61.59
78857;BME280;68207;50.078;19.936;2023-03-19T03:51:07;99193.60;;;2.38;62.05
78857;BME280;68207;50.078;19.936;2023-03-19T03:53:32;99194.87;;;2.35;61.98
78857;BME280;68207;50.078;19.936;2023-03-19T03:55:58;99196.83;;;2.32;62.01
78857;BME280;68207;50.078;19.936;2023-03-19T03:58:23;99199.63;;;2.30;62.27
78857;BME280;68207;50.078;19.936;2023-03-19T04:00:49;99206.27;;;2.27;62.19
78857;BME280;68207;50.078;19.936;2023-03-19T04:03:15;99205.75;;;2.25;61.95
78857;BME280;68207;50.078;19.936;2023-03-19T04:05:42;99201.90;;;2.25;62.17
78857;BME280;68207;50.078;19.936;2023-03-19T04:08:08;99205.98;;;2.29;62.20
78857;BME280;68207;50.078;19.936;2023-03-19T04:10:34;99210.66;;;2.31;62.27
78857;BME280;68207;50.078;19.936;2023-03-19T04:13:01;99214.72;;;2.33;61.99
78857;BME280;68207;50.078;19.936;2023-03-19T04:15:26;99213.13;;;2.33;62.10
78857;BME280;68207;50.078;19.936;2023-03-19T04:17:52;99212.85;;;2.32;62.01
78857;BME280;68207;50.078;19.936;2023-03-19T04:20:18;99208.25;;;2.31;62.05
78857;BME280;68207;50.078;19.936;2023-03-19T04:22:44;99203.98;;;2.30;62.21
78857;BME280;68207;50.078;19.936;2023-03-19T04:25:12;99207.48;;;2.30;62.12
78857;BME280;68207;50.078;19.936;2023-03-19T04:27:37;99210.59;;;2.25;62.28
78857;BME280;68207;50.078;19.936;2023-03-19T04:30:03;99202.23;;;2.20;62.00
78857;BME280;68207;50.078;19.936;2023-03-19T04:32:28;99197.55;;;2.15;62.26
78857;BME280;68207;50.078;19.936;2023-03-19T04:34:54;99192.48;;;2.13;62.19
78857;BME280;68207;50.078;19.936;2023-03-19T04:37:20;99198.64;;;2.10;62.02
78857;BME280;68207;50.078;19.936;2023-03-19T04:39:48;99195.73;;;2.07;62.04
78857;BME280;68207;50.078;19.936;2023-03-19T04:42:13;99190.30;;;2.05;62.03
78857;BME280;68207;50.078;19.936;2023-03-19T04:44:39;99188.10;;;2.04;62.00
78857;BME280;68207;50.078;19.936;2023-03-19T04:47:05;99192.45;;;2.02;62.05
78857;BME280;68207;50.078;19.936;2023-03-19T04:49:30;99199.05;;;1.97;62.29
78857;BME280;68207;50.078;19.936;2023-03-19T04:51:56;99195.05;;;1.93;61.99
78857;BME280;68207;50.078;19.936;2023-03-19T04:54:23;99193.47;;;1.91;62.08
78857;BME280;68207;50.078;19.936;2023-03-19T04:56:48;99194.77;;;1.87;62.55
78857;BME280;68207;50.078;19.936;2023-03-19T04:59:14;99197.78;;;1.87;63.04
78857;BME280;68207;50.078;19.936;2023-03-19T05:01:39;99201.36;;;1.85;62.81
78857;BME280;68207;50.078;19.936;2023-03-19T05:04:05;99204.93;;;1.84;63.39
78857;BME280;68207;50.078;19.936;2023-03-19T05:06:31;99205.55;;;1.85;63.39
78857;BME280;68207;50.078;19.936;2023-03-19T05:08:57;99200.55;;;1.87;63.17
78857;BME280;68207;50.078;19.936;2023-03-19T05:11:22;99197.65;;;1.88;63.27
78857;BME280;68207;50.078;19.936;2023-03-19T05:13:48;99204.13;;;1.95;63.04
78857;BME280;68207;50.078;19.936;2023-03-19T05:16:13;99207.82;;;2.01;63.12
78857;BME280;68207;50.078;19.936;2023-03-19T05:18:38;99205.35;;;2.07;63.22
78857;BME280;68207;50.078;19.936;2023-03-19T05:21:04;99202.46;;;2.10;62.93
78857;BME280;68207;50.078;19.936;2023-03-19T05:23:30;99205.91;;;2.15;62.95
78857;BME280;68207;50.078;19.936;2023-03-19T05:25:58;99201.51;;;2.21;62.90
78857;BME280;68207;50.078;19.936;2023-03-19T05:28:25;99203.17;;;2.27;62.66
78857;BME280;68207;50.078;19.936;2023-03-19T05:30:53;99200.52;;;2.32;62.62
78857;BME280;68207;50.078;19.936;2023-03-19T05:33:22;99195.76;;;2.37;62.45
78857;BME280;68207;50.078;19.936;2023-03-19T05:35:47;99194.67;;;2.42;62.40
78857;BME280;68207;50.078;19.936;2023-03-19T05:38:14;99193.71;;;2.48;62.27
78857;BME280;68207;50.078;19.936;2023-03-19T05:40:39;99194.80;;;2.54;62.40
78857;BME280;68207;50.078;19.936;2023-03-19T05:43:07;99198.93;;;2.59;62.15
78857;BME280;68207;50.078;19.936;2023-03-19T05:45:33;99195.20;;;2.65;62.44
78857;BME280;68207;50.078;19.936;2023-03-19T05:48:00;99198.05;;;2.73;62.04
78857;BME280;68207;50.078;19.936;2023-03-19T05:50:25;99193.27;;;2.81;62.10
78857;BME280;68207;50.078;19.936;2023-03-19T05:52:51;99194.19;;;2.89;62.06
78857;BME280;68207;50.078;19.936;2023-03-19T05:55:16;99192.05;;;2.99;61.85
78857;BME280;68207;50.078;19.936;2023-03-19T05:57:42;99190.55;;;3.09;61.67
78857;BME280;68207;50.078;19.936;2023-03-19T06:00:08;99192.48;;;3.20;61.36
78857;BME280;68207;50.078;19.936;2023-03-19T06:02:34;99188.58;;;3.32;61.19
78857;BME280;68207;50.078;19.936;2023-03-19T06:05:00;99195.24;;;3.45;61.11
78857;BME280;68207;50.078;19.936;2023-03-19T06:07:25;99198.34;;;3.58;60.90
78857;BME280;68207;50.078;19.936;2023-03-19T06:09:51;99200.64;;;3.73;60.71
78857;BME280;68207;50.078;19.936;2023-03-19T06:12:16;99199.70;;;3.89;60.56
78857;BME280;68207;50.078;19.936;2023-03-19T06:14:45;99204.36;;;4.05;60.24
78857;BME280;68207;50.078;19.936;2023-03-19T06:17:11;99205.30;;;4.23;60.14
78857;BME280;68207;50.078;19.936;2023-03-19T06:19:36;99203.02;;;4.42;59.88
78857;BME280;68207;50.078;19.936;2023-03-19T06:22:02;99204.04;;;4.61;59.60
78857;BME280;68207;50.078;19.936;2023-03-19T06:24:27;99203.48;;;4.79;59.22
78857;BME280;68207;50.078;19.936;2023-03-19T06:26:54;99201.08;;;5.00;58.73
78857;BME280;68207;50.078;19.936;2023-03-19T06:29:20;99203.58;;;5.19;58.11
78857;BME280;68207;50.078;19.936;2023-03-19T06:31:45;99210.48;;;5.41;57.67
78857;BME280;68207;50.078;19.936;2023-03-19T06:34:11;99213.27;;;5.62;57.42
78857;BME280;68207;50.078;19.936;2023-03-19T06:36:36;99214.95;;;5.87;57.09
78857;BME280;68207;50.078;19.936;2023-03-19T06:39:02;99215.36;;;6.14;56.70
78857;BME280;68207;50.078;19.936;2023-03-19T06:41:28;99215.59;;;6.42;56.50
78857;BME280;68207;50.078;19.936;2023-03-19T06:43:53;99219.48;;;6.72;55.96
78857;BME280;68207;50.078;19.936;2023-03-19T06:46:19;99223.31;;;7.03;55.28
78857;BME280;68207;50.078;19.936;2023-03-19T06:48:44;99227.31;;;7.33;54.63
78857;BME280;68207;50.078;19.936;2023-03-19T06:51:10;99225.29;;;7.63;53.85
78857;BME280;68207;50.078;19.936;2023-03-19T06:53:35;99223.00;;;7.92;53.37
78857;BME280;68207;50.078;19.936;2023-03-19T06:56:00;99229.95;;;8.20;52.79
78857;BME280;68207;50.078;19.936;2023-03-19T06:58:25;99237.41;;;8.46;51.99
78857;BME280;68207;50.078;19.936;2023-03-19T07:00:51;99231.36;;;8.78;51.75
78857;BME280;68207;50.078;19.936;2023-03-19T07:03:16;99224.89;;;9.08;51.07
78857;BME280;68207;50.078;19.936;2023-03-19T07:05:41;99222.77;;;9.38;50.50
78857;BME280;68207;50.078;19.936;2023-03-19T07:08:07;99221.50;;;9.65;49.99
78857;BME280;68207;50.078;19.936;2023-03-19T07:10:37;99217.83;;;9.94;49.40
78857;BME280;68207;50.078;19.936;2023-03-19T07:13:04;99217.38;;;10.24;48.55
78857;BME280;68207;50.078;19.936;2023-03-19T07:15:30;99217.30;;;10.51;47.71
78857;BME280;68207;50.078;19.936;2023-03-19T07:17:55;99210.48;;;10.81;47.67
78857;BME280;68207;50.078;19.936;2023-03-19T07:20:21;99212.66;;;11.14;46.92
78857;BME280;68207;50.078;19.936;2023-03-19T07:22:49;99210.64;;;11.46;45.95
78857;BME280;68207;50.078;19.936;2023-03-19T07:25:15;99206.89;;;11.73;45.15
78857;BME280;68207;50.078;19.936;2023-03-19T07:27:40;99210.86;;;11.99;44.74
78857;BME280;68207;50.078;19.936;2023-03-19T07:30:06;99214.48;;;12.24;44.35
78857;BME280;68207;50.078;19.936;2023-03-19T07:32:31;99217.39;;;12.51;43.80
78857;BME280;68207;50.078;19.936;2023-03-19T07:34:57;99210.45;;;12.78;43.00
78857;BME280;68207;50.078;19.936;2023-03-19T07:37:22;99206.96;;;12.98;42.63
78857;BME280;68207;50.078;19.936;2023-03-19T07:39:47;99206.55;;;13.26;42.00
78857;BME280;68207;50.078;19.936;2023-03-19T07:42:13;99207.41;;;13.49;41.68
78857;BME280;68207;50.078;19.936;2023-03-19T07:44:38;99212.51;;;13.76;41.12
78857;BME280;68207;50.078;19.936;2023-03-19T07:47:03;99209.81;;;14.08;40.32
78857;BME280;68207;50.078;19.936;2023-03-19T07:49:29;99215.23;;;14.29;39.47
78857;BME280;68207;50.078;19.936;2023-03-19T07:51:54;99212.05;;;14.32;38.40
78857;BME280;68207;50.078;19.936;2023-03-19T07:54:19;99211.66;;;14.19;38.21
78857;BME280;68207;50.078;19.936;2023-03-19T07:56:45;99213.09;;;14.12;38.13
78857;BME280;68207;50.078;19.936;2023-03-19T07:59:10;99209.82;;;14.24;38.18
78857;BME280;68207;50.078;19.936;2023-03-19T08:01:36;99203.72;;;14.54;37.87
78857;BME280;68207;50.078;19.936;2023-03-19T08:04:01;99198.50;;;14.78;37.71
78857;BME280;68207;50.078;19.936;2023-03-19T08:06:26;99200.70;;;15.09;37.35
78857;BME280;68207;50.078;19.936;2023-03-19T08:08:52;99198.75;;;15.37;37.04
78857;BME280;68207;50.078;19.936;2023-03-19T08:11:17;99196.63;;;15.76;36.71
78857;BME280;68207;50.078;19.936;2023-03-19T08:13:42;99192.48;;;16.14;35.99
78857;BME280;68207;50.078;19.936;2023-03-19T08:16:08;99195.08;;;16.52;35.23
78857;BME280;68207;50.078;19.936;2023-03-19T08:18:34;99188.60;;;16.83;34.76
78857;BME280;68207;50.078;19.936;2023-03-19T08:20:59;99188.86;;;17.10;34.19
78857;BME280;68207;50.078;19.936;2023-03-19T08:23:25;99187.40;;;17.42;33.79
78857;BME280;68207;50.078;19.936;2023-03-19T08:25:51;99187.96;;;17.70;32.75
78857;BME280;68207;50.078;19.936;2023-03-19T08:28:18;99187.34;;;17.92;32.14
78857;BME280;68207;50.078;19.936;2023-03-19T08:30:43;99183.89;;;17.97;31.75
78857;BME280;68207;50.078;19.936;2023-03-19T08:33:08;99184.83;;;18.09;31.45
78857;BME280;68207;50.078;19.936;2023-03-19T08:35:33;99181.48;;;18.21;30.86
78857;BME280;68207;50.078;19.936;2023-03-19T08:37:59;99181.85;;;18.17;29.92
78857;BME280;68207;50.078;19.936;2023-03-19T08:40:24;99175.42;;;17.97;29.31
78857;BME280;68207;50.078;19.936;2023-03-19T08:42:50;99171.70;;;17.90;29.65
78857;BME280;68207;50.078;19.936;2023-03-19T08:45:15;99174.08;;;17.95;30.21
78857;BME280;68207;50.078;19.936;2023-03-19T08:47:42;99173.23;;;18.20;30.07
78857;BME280;68207;50.078;19.936;2023-03-19T08:50:07;99173.71;;;18.50;29.74
78857;BME280;68207;50.078;19.936;2023-03-19T08:52:33;99174.23;;;18.76;29.63
78857;BME280;68207;50.078;19.936;2023-03-19T08:54:59;99175.09;;;19.04;29.43
78857;BME280;68207;50.078;19.936;2023-03-19T08:57:24;99177.39;;;19.27;29.00
78857;BME280;68207;50.078;19.936;2023-03-19T08:59:51;99175.23;;;19.49;28.66
78857;BME280;68207;50.078;19.936;2023-03-19T09:02:17;99176.41;;;19.77;28.36
78857;BME280;68207;50.078;19.936;2023-03-19T09:04:42;99182.09;;;20.01;27.83
78857;BME280;68207;50.078;19.936;2023-03-19T09:07:08;99182.55;;;20.23;27.93
78857;BME280;68207;50.078;19.936;2023-03-19T09:09:37;99183.48;;;20.45;27.53
78857;BME280;68207;50.078;19.936;2023-03-19T09:12:03;99186.80;;;20.70;27.16
78857;BME280;68207;50.078;19.936;2023-03-19T09:14:28;99188.69;;;20.94;27.32
78857;BME280;68207;50.078;19.936;2023-03-19T09:16:53;99188.85;;;21.26;27.18
78857;BME280;68207;50.078;19.936;2023-03-19T09:19:19;99183.95;;;21.55;26.89
78857;BME280;68207;50.078;19.936;2023-03-19T09:21:45;99174.70;;;21.78;26.52
78857;BME280;68207;50.078;19.936;2023-03-19T09:24:10;99173.56;;;22.01;26.07
78857;BME280;68207;50.078;19.936;2023-03-19T09:26:35;99168.58;;;22.19;25.73
78857;BME280;68207;50.078;19.936;2023-03-19T09:29:01;99170.91;;;22.41;25.59
78857;BME280;68207;50.078;19.936;2023-03-19T09:31:27;99169.21;;;22.64;25.34
78857;BME280;68207;50.078;19.936;2023-03-19T09:33:53;99173.52;;;22.89;25.27
78857;BME280;68207;50.078;19.936;2023-03-19T09:36:18;99167.42;;;23.06;24.65
78857;BME280;68207;50.078;19.936;2023-03-19T09:38:43;99163.89;;;23.23;24.48
78857;BME280;68207;50.078;19.936;2023-03-19T09:41:13;99161.97;;;23.22;22.85
78857;BME280;68207;50.078;19.936;2023-03-19T09:44:04;99160.91;;;22.81;23.38
78857;BME280;68207;50.078;19.936;2023-03-19T09:46:39;99154.60;;;22.65;23.11
78857;BME280;68207;50.078;19.936;2023-03-19T09:49:29;99146.60;;;22.41;23.45
78857;BME280;68207;50.078;19.936;2023-03-19T09:55:01;99149.30;;;22.84;23.93
78857;BME280;68207;50.078;19.936;2023-03-19T09:57:29;99145.91;;;23.15;23.76
78857;BME280;68207;50.078;19.936;2023-03-19T09:59:57;99144.39;;;23.37;23.57
78857;BME280;68207;50.078;19.936;2023-03-19T10:02:40;99144.55;;;23.69;23.17
78857;BME280;68207;50.078;19.936;2023-03-19T10:05:41;99143.54;;;24.03;23.09
78857;BME280;68207;50.078;19.936;2023-03-19T10:11:23;99145.81;;;24.44;21.29
78857;BME280;68207;50.078;19.936;2023-03-19T10:16:27;99142.89;;;23.83;21.02
78857;BME280;68207;50.078;19.936;2023-03-19T10:18:58;99137.70;;;23.71;21.06
78857;BME280;68207;50.078;19.936;2023-03-19T10:21:45;99136.54;;;23.36;20.85
78857;BME280;68207;50.078;19.936;2023-03-19T10:24:25;99132.25;;;22.91;21.25
78857;BME280;68207;50.078;19.936;2023-03-19T10:26:58;99129.10;;;22.94;21.71
78857;BME280;68207;50.078;19.936;2023-03-19T10:29:25;99123.80;;;23.05;21.76
78857;BME280;68207;50.078;19.936;2023-03-19T10:31:57;99121.21;;;23.32;22.06
78857;BME280;68207;50.078;19.936;2023-03-19T10:34:36;99116.23;;;23.73;22.07
78857;BME280;68207;50.078;19.936;2023-03-19T10:37:13;99112.47;;;24.16;21.89
78857;BME280;68207;50.078;19.936;2023-03-19T10:39:41;99111.57;;;24.59;21.72
78857;BME280;68207;50.078;19.936;2023-03-19T10:44:50;99105.09;;;25.46;21.25
78857;BME280;68207;50.078;19.936;2023-03-19T10:47:17;99096.58;;;25.93;20.84
78857;BME280;68207;50.078;19.936;2023-03-19T10:49:49;99097.10;;;26.27;20.40
78857;BME280;68207;50.078;19.936;2023-03-19T10:52:23;99092.16;;;26.54;20.21
78857;BME280;68207;50.078;19.936;2023-03-19T10:54:55;99087.89;;;26.79;20.06
78857;BME280;68207;50.078;19.936;2023-03-19T10:57:27;99084.23;;;27.02;19.85
78857;BME280;68207;50.078;19.936;2023-03-19T10:59:53;99082.32;;;27.23;19.63
78857;BME280;68207;50.078;19.936;2023-03-19T11:02:20;99074.31;;;27.38;19.15
78857;BME280;68207;50.078;19.936;2023-03-19T11:04:47;99070.66;;;27.39;19.25
78857;BME280;68207;50.078;19.936;2023-03-19T11:07:13;99073.73;;;27.50;19.11
78857;BME280;68207;50.078;19.936;2023-03-19T11:09:47;99073.27;;;27.58;18.84
78857;BME280;68207;50.078;19.936;2023-03-19T11:12:33;99069.48;;;27.49;18.71
78857;BME280;68207;50.078;19.936;2023-03-19T11:15:00;99067.69;;;27.47;18.69
78857;BME280;68207;50.078;19.936;2023-03-19T11:17:38;99065.85;;;27.46;18.52
78857;BME280;68207;50.078;19.936;2023-03-19T11:20:26;99067.36;;;27.20;18.47
78857;BME280;68207;50.078;19.936;2023-03-19T11:22:53;99064.85;;;27.00;18.69
78857;BME280;68207;50.078;19.936;2023-03-19T11:25:49;99061.38;;;26.95;18.97
78857;BME280;68207;50.078;19.936;2023-03-19T11:28:21;99059.67;;;27.03;18.93
78857;BME280;68207;50.078;19.936;2023-03-19T11:31:11;99054.33;;;26.94;18.60
78857;BME280;68207;50.078;19.936;2023-03-19T11:39:04;99042.79;;;26.37;18.53
78857;BME280;68207;50.078;19.936;2023-03-19T11:44:25;99040.27;;;26.39;18.42
78857;BME280;68207;50.078;19.936;2023-03-19T11:47:37;99035.02;;;26.07;18.57
78857;BME280;68207;50.078;19.936;2023-03-19T11:52:50;99016.29;;;26.18;19.20
78857;BME280;68207;50.078;19.936;2023-03-19T12:04:02;99007.09;;;27.07;17.95
78857;BME280;68207;50.078;19.936;2023-03-19T12:06:44;99007.42;;;27.03;18.05
78857;BME280;68207;50.078;19.936;2023-03-19T12:09:22;99007.61;;;27.08;17.86
78857;BME280;68207;50.078;19.936;2023-03-19T12:11:53;99002.20;;;27.17;18.24
78857;BME280;68207;50.078;19.936;2023-03-19T12:14:52;99000.44;;;27.44;17.94
78857;BME280;68207;50.078;19.936;2023-03-19T12:23:20;98997.08;;;28.42;17.68
78857;BME280;68207;50.078;19.936;2023-03-19T12:26:01;98993.34;;;28.45;16.69
78857;BME280;68207;50.078;19.936;2023-03-19T12:33:58;98981.39;;;28.68;17.39
78857;BME280;68207;50.078;19.936;2023-03-19T12:36:38;98976.42;;;28.88;17.47
78857;BME280;68207;50.078;19.936;2023-03-19T12:39:17;98965.67;;;29.02;17.06
78857;BME280;68207;50.078;19.936;2023-03-19T12:41:45;98962.52;;;29.13;17.01
78857;BME280;68207;50.078;19.936;2023-03-19T12:44:18;98958.37;;;29.25;17.18
78857;BME280;68207;50.078;19.936;2023-03-19T12:46:52;98955.45;;;29.41;16.81
78857;BME280;68207;50.078;19.936;2023-03-19T12:49:36;98953.78;;;29.50;16.39
78857;BME280;68207;50.078;19.936;2023-03-19T12:52:11;98952.48;;;29.49;16.53
78857;BME280;68207;50.078;19.936;2023-03-19T12:54:41;98949.55;;;29.49;16.06
78857;BME280;68207;50.078;19.936;2023-03-19T12:57:30;98947.09;;;29.40;16.30
78857;BME280;68207;50.078;19.936;2023-03-19T13:00:04;98943.88;;;29.39;16.32
78857;BME280;68207;50.078;19.936;2023-03-19T13:02:36;98937.99;;;29.43;16.49
78857;BME280;68207;50.078;19.936;2023-03-19T13:05:40;98942.14;;;29.57;16.54
78857;BME280;68207;50.078;19.936;2023-03-19T13:08:13;98940.96;;;29.70;16.52
78857;BME280;68207;50.078;19.936;2023-03-19T13:10:41;98939.16;;;29.80;16.42
78857;BME280;68207;50.078;19.936;2023-03-19T13:13:27;98943.70;;;29.89;16.38
78857;BME280;68207;50.078;19.936;2023-03-19T13:16:02;98944.58;;;29.83;16.03
78857;BME280;68207;50.078;19.936;2023-03-19T13:18:36;98939.17;;;29.83;16.07
78857;BME280;68207;50.078;19.936;2023-03-19T13:21:27;98937.61;;;29.78;16.11
78857;BME280;68207;50.078;19.936;2023-03-19T13:24:11;98929.56;;;29.69;16.30
78857;BME280;68207;50.078;19.936;2023-03-19T13:26:39;98930.20;;;29.62;16.22
78857;BME280;68207;50.078;19.936;2023-03-19T13:31:33;98931.17;;;29.45;16.09
78857;BME280;68207;50.078;19.936;2023-03-19T13:34:34;98926.33;;;29.33;16.27
78857;BME280;68207;50.078;19.936;2023-03-19T13:39:31;98919.52;;;29.26;16.31
78857;BME280;68207;50.078;19.936;2023-03-19T13:42:09;98920.30;;;29.25;16.47
78857;BME280;68207;50.078;19.936;2023-03-19T13:44:51;98920.11;;;29.19;16.40
78857;BME280;68207;50.078;19.936;2023-03-19T14:03:21;98906.97;;;28.93;16.52
78857;BME280;68207;50.078;19.936;2023-03-19T14:05:48;98907.66;;;28.67;16.60
78857;BME280;68207;50.078;19.936;2023-03-19T14:08:21;98905.92;;;28.42;16.78